Time;durP1;ratioP1;P1;durP2;ratioP2;P2;SDS_P1;SDS_P2;PMS_P1;PMS_P2;Temp;Humidity;BMP_temperature;BMP_pressure;BME280_temperature;BME280_humidity;BME280_pressure;Samples;Min_cycle;Max_cycle;Signal;HPM_P1;HPM_P2
2021/10/09 00:01:09;;;;;;;1.30;1.30;;;;;;;6.41;91.99;94930.30;828826;71;29580;-79
2021/10/09 00:16:16;;;;;;;1.20;1.20;;;;;;;6.12;92.55;94919.39;825532;71;33116;-81
2021/10/09 00:31:09;;;;;;;2.30;1.30;;;;;;;6.05;93.54;94912.31;819595;71;29918;-81
2021/10/09 00:46:09;;;;;;;1.47;1.37;;;;;;;5.93;95.28;94900.20;821467;71;30667;-77
2021/10/09 01:01:09;;;;;;;1.40;1.30;;;;;;;6.28;96.82;94892.94;822275;71;29623;-78
2021/10/09 01:16:20;;;;;;;1.50;1.50;;;;;;;6.26;95.26;94871.55;834091;71;30150;-84
2021/10/09 01:31:13;;;;;;;1.27;1.27;;;;;;;6.59;95.95;94885.58;826928;71;31988;-78
2021/10/09 01:46:12;;;;;;;1.20;1.20;;;;;;;6.39;94.76;94877.12;826913;71;31918;-79
2021/10/09 02:01:08;;;;;;;1.20;1.20;;;;;;;6.28;95.78;94870.26;822159;71;29787;-79
2021/10/09 02:16:21;;;;;;;1.30;1.30;;;;;;;6.18;96.14;94871.00;828195;71;30207;-79
2021/10/09 02:31:08;;;;;;;2.52;1.57;;;;;;;6.58;97.47;94867.58;828290;71;29862;-78
2021/10/09 02:46:14;;;;;;;2.25;2.15;;;;;;;6.35;96.54;94869.54;835818;69;32663;-80
2021/10/09 03:16:14;;;;;;;2.10;2.00;;;;;;;6.46;95.32;94866.47;827668;71;33160;-79
2021/10/09 03:31:08;;;;;;;3.12;2.92;;;;;;;6.48;94.43;94870.91;827895;71;29481;-77
2021/10/09 04:01:08;;;;;;;2.70;2.50;;;;;;;6.46;94.17;94865.16;828923;71;29733;-79
2021/10/09 04:16:08;;;;;;;2.27;2.17;;;;;;;6.20;94.28;94862.41;817067;71;29647;-80
2021/10/09 04:31:08;;;;;;;2.58;2.47;;;;;;;6.15;94.24;94872.79;832679;71;29816;-80
2021/10/09 04:46:08;;;;;;;2.30;2.20;;;;;;;6.01;93.96;94872.95;834073;71;29411;-77
2021/10/09 05:01:08;;;;;;;2.30;2.20;;;;;;;5.88;94.63;94881.94;828341;71;29766;-79
2021/10/09 05:16:08;;;;;;;2.60;2.40;;;;;;;5.80;94.87;94891.50;822825;71;29631;-78
2021/10/09 05:31:10;;;;;;;2.45;2.35;;;;;;;5.85;95.97;94888.92;832660;71;29962;-77
2021/10/09 05:46:17;;;;;;;2.10;2.00;;;;;;;5.95;96.17;94902.06;827260;71;32803;-78
2021/10/09 06:01:28;;;;;;;3.60;3.40;;;;;;;10.90;98.66;94912.61;828202;71;30048;-79
2021/10/09 06:46:38;;;;;;;3.33;3.10;;;;;;;7.21;87.13;94939.34;828008;71;30703;-78
2021/10/09 07:01:09;;;;;;;5.62;4.10;;;;;;;6.83;89.65;94928.20;833917;71;28777;-80
2021/10/09 07:16:09;;;;;;;4.05;3.65;;;;;;;6.79;92.49;94937.56;827875;71;28713;-76
2021/10/09 07:31:09;;;;;;;5.08;4.50;;;;;;;7.11;93.49;94939.30;827803;71;28645;-76
2021/10/09 07:46:09;;;;;;;2.60;2.40;;;;;;;7.07;93.96;94945.54;828031;71;29663;-76
2021/10/09 08:01:10;;;;;;;2.00;1.85;;;;;;;7.18;91.86;94947.17;827962;71;29636;-77
2021/10/09 08:16:08;;;;;;;2.55;2.10;;;;;;;7.04;90.79;94942.15;828228;71;28713;-75
2021/10/09 08:46:08;;;;;;;1.70;1.60;;;;;;;7.36;90.54;94972.05;834561;71;28725;-75
2021/10/09 09:46:18;;;;;;;3.00;2.80;;;;;;;7.54;93.62;94983.87;833651;71;32348;-77
2021/10/09 10:01:14;;;;;;;2.90;2.70;;;;;;;7.53;93.90;94997.17;827789;71;32043;-75
2021/10/09 10:16:31;;;;;;;4.80;2.85;;;;;;;7.48;94.05;94999.75;826762;71;32600;-77
2021/10/09 10:31:14;;;;;;;3.92;3.52;;;;;;;7.52;93.59;94995.09;822800;71;32365;-77
2021/10/09 10:46:36;;;;;;;3.15;2.95;;;;;;;7.65;94.43;94985.98;827116;71;31753;-76
2021/10/09 11:01:19;;;;;;;3.83;3.58;;;;;;;7.35;93.87;94961.33;828040;71;28702;-77
2021/10/09 11:16:15;;;;;;;5.35;3.50;;;;;;;7.51;93.94;94981.75;827018;71;31866;-75
2021/10/09 11:31:08;;;;;;;5.65;4.97;;;;;;;7.47;95.25;94974.16;823739;71;28636;-77
2021/10/09 11:46:23;;;;;;;6.72;5.28;;;;;;;7.63;96.37;94961.95;813927;71;28783;-80
2021/10/09 12:01:11;;;;;;;4.85;4.45;;;;;;;7.65;97.49;94970.84;828039;71;28451;-76
2021/10/09 12:16:10;;;;;;;4.70;4.37;;;;;;;7.60;98.98;94975.50;831791;71;28724;-79
2021/10/09 12:31:14;;;;;;;4.20;3.90;;;;;;;7.76;98.80;94977.64;823908;71;28718;-80
2021/10/09 12:46:28;;;;;;;5.87;5.40;;;;;;;7.76;99.28;94999.84;823326;71;32730;-76
2021/10/09 13:01:14;;;;;;;5.42;4.92;;;;;;;7.89;99.21;95012.44;826519;71;33726;-77
2021/10/09 13:16:13;;;;;;;5.70;5.10;;;;;;;8.00;99.97;95040.15;827768;71;31940;-76
2021/10/09 13:31:09;;;;;;;7.47;6.78;;;;;;;8.19;97.99;95030.02;832826;71;29722;-76
2021/10/09 13:46:09;;;;;;;4.55;4.20;;;;;;;8.01;96.75;95037.81;825796;71;29783;-76
2021/10/09 14:01:14;;;;;;;7.62;6.62;;;;;;;7.96;95.85;95029.95;828018;71;31436;-78
2021/10/09 14:16:10;;;;;;;5.10;4.58;;;;;;;7.91;95.84;95027.86;827152;71;30354;-77
2021/10/09 14:31:11;;;;;;;5.55;5.03;;;;;;;7.44;97.58;95013.85;828003;71;30427;-76
2021/10/09 15:31:16;;;;;;;5.20;4.70;;;;;;;7.16;100.00;95005.35;822810;71;27893;-78
2021/10/09 15:46:12;;;;;;;6.00;4.90;;;;;;;7.34;100.00;95009.86;826329;71;30041;-76
2021/10/09 16:01:14;;;;;;;4.10;3.80;;;;;;;7.27;100.00;95005.41;828040;71;32643;-77
2021/10/09 16:16:15;;;;;;;3.95;3.58;;;;;;;7.13;100.00;94998.02;828538;71;32738;-78
2021/10/09 16:31:15;;;;;;;4.90;3.90;;;;;;;7.09;100.00;95002.70;826818;71;33173;-75
2021/10/09 16:46:09;;;;;;;2.87;2.67;;;;;;;7.02;100.00;95013.36;828023;71;30839;-77
2021/10/09 17:01:19;;;;;;;2.90;2.60;;;;;;;7.11;100.00;95014.44;827555;71;32798;-79
2021/10/09 17:16:12;;;;;;;4.87;3.05;;;;;;;7.15;100.00;95019.42;828117;71;30272;-78
2021/10/09 17:31:10;;;;;;;2.35;2.22;;;;;;;7.21;100.00;95018.41;832719;71;30283;-79
2021/10/09 17:46:08;;;;;;;2.65;2.45;;;;;;;7.21;100.00;95030.16;828228;71;29653;-79
2021/10/09 18:01:15;;;;;;;2.95;2.75;;;;;;;7.08;100.00;95035.84;827448;71;32816;-75
2021/10/09 18:16:09;;;;;;;3.20;2.90;;;;;;;7.01;100.00;95028.73;833842;71;29689;-76
2021/10/09 18:31:12;;;;;;;2.92;2.72;;;;;;;7.03;100.00;95014.92;826998;71;32425;-77
2021/10/09 18:46:14;;;;;;;3.00;2.80;;;;;;;7.07;100.00;95015.98;820699;71;33345;-76
2021/10/09 19:01:09;;;;;;;2.33;2.20;;;;;;;6.98;100.00;94990.90;827936;71;30180;-76
2021/10/09 19:16:09;;;;;;;2.75;2.55;;;;;;;7.10;100.00;95010.80;828038;71;30408;-79
2021/10/09 19:31:10;;;;;;;2.50;2.30;;;;;;;7.09;100.00;95001.39;827902;71;30270;-75
2021/10/09 19:46:14;;;;;;;3.52;3.00;;;;;;;7.27;100.00;95002.27;827485;71;32710;-78
2021/10/09 20:01:18;;;;;;;3.52;3.22;;;;;;;7.37;100.00;95017.20;827376;71;32697;-76
2021/10/09 20:16:09;;;;;;;4.40;3.90;;;;;;;7.38;100.00;95027.89;793936;74;30335;-77
2021/10/09 20:31:15;;;;;;;3.40;3.10;;;;;;;7.39;100.00;95021.65;823517;70;33287;-78
2021/10/09 20:46:15;;;;;;;3.08;2.87;;;;;;;7.51;100.00;95022.75;828289;71;32752;-76
2021/10/09 21:31:08;;;;;;;2.55;2.35;;;;;;;7.60;100.00;94995.09;827928;71;29775;-77
2021/10/09 21:46:08;;;;;;;2.70;2.50;;;;;;;7.55;100.00;94991.95;828197;71;29648;-76
2021/10/09 22:01:35;;;;;;;3.05;2.75;;;;;;;7.57;100.00;95000.84;827062;71;32652;-77
2021/10/09 22:46:12;;;;;;;3.40;2.50;;;;;;;7.63;100.00;94995.38;828193;71;31609;-77
2021/10/09 23:01:15;;;;;;;2.27;2.17;;;;;;;7.68;100.00;94979.45;833897;71;33174;-77
2021/10/09 23:16:08;;;;;;;2.20;2.10;;;;;;;7.69;100.00;94998.79;828264;71;29720;-78
2021/10/09 23:31:08;;;;;;;2.45;2.27;;;;;;;7.68;100.00;94976.84;827919;71;29847;-77
2021/10/09 23:46:18;;;;;;;1.82;1.72;;;;;;;7.73;100.00;94983.40;827863;71;32696;-76
